Time;durP1;ratioP1;P1;durP2;ratioP2;P2;SDS_P1;SDS_P2;PMS_P1;PMS_P2;Temp;Humidity;BMP_temperature;BMP_pressure;BME280_temperature;BME280_humidity;BME280_pressure;Samples;Min_cycle;Max_cycle;Signal;HPM_P1;HPM_P2
2021/09/12 00:00:35;;;;;;;1.20;1.10;;;24.40;62.10;;;;;;5104840;28;20654;-37
2021/09/12 00:03:02;;;;;;;1.30;1.20;;;24.40;62.20;;;;;;5104645;28;20036;-36
2021/09/12 00:05:28;;;;;;;1.23;1.13;;;24.40;62.20;;;;;;5103383;28;20024;-36
2021/09/12 00:07:54;;;;;;;0.90;0.90;;;24.40;62.20;;;;;;5104454;28;20032;-36
2021/09/12 00:10:20;;;;;;;1.20;1.10;;;24.40;62.20;;;;;;5104599;28;20035;-36
2021/09/12 00:12:46;;;;;;;0.90;0.90;;;24.40;62.30;;;;;;5104385;28;20137;-36
2021/09/12 00:15:13;;;;;;;1.30;1.20;;;24.50;62.30;;;;;;5104606;28;20020;-36
2021/09/12 00:17:39;;;;;;;1.50;1.40;;;24.40;62.30;;;;;;5102782;28;20032;-36
2021/09/12 00:20:06;;;;;;;1.20;1.10;;;24.40;62.20;;;;;;5104442;28;20101;-36
2021/09/12 00:22:33;;;;;;;;;;;24.40;62.00;;;;;;5114705;28;20268;-36
2021/09/12 00:25:00;;;;;;;1.10;1.00;;;24.40;61.60;;;;;;5124618;28;19912;-36
2021/09/12 00:27:26;;;;;;;1.40;1.30;;;24.40;62.40;;;;;;5124769;27;20031;-36
2021/09/12 00:29:52;;;;;;;1.60;1.50;;;24.40;62.70;;;;;;5124681;28;20031;-36
2021/09/12 00:32:18;;;;;;;1.58;1.48;;;24.40;62.80;;;;;;5124562;28;20023;-36
2021/09/12 00:34:44;;;;;;;1.60;1.50;;;24.40;62.90;;;;;;5124526;27;20035;-36
2021/09/12 00:37:10;;;;;;;1.30;1.20;;;24.50;63.00;;;;;;5124339;28;20028;-36
2021/09/12 00:39:36;;;;;;;1.30;1.20;;;24.50;63.00;;;;;;5124388;28;20031;-36
2021/09/12 00:42:03;;;;;;;1.40;1.30;;;24.40;63.00;;;;;;5124181;28;20601;-36
2021/09/12 00:44:29;;;;;;;1.40;1.30;;;24.50;63.10;;;;;;5124278;28;20039;-36
2021/09/12 00:46:55;;;;;;;2.50;1.25;;;24.50;63.20;;;;;;5124299;28;20275;-36
2021/09/12 00:49:21;;;;;;;3.03;1.63;;;24.40;63.20;;;;;;5105718;28;20045;-36
2021/09/12 00:51:48;;;;;;;1.20;1.10;;;24.50;63.20;;;;;;5124216;28;20072;-36
2021/09/12 00:54:14;;;;;;;1.45;1.35;;;24.50;63.40;;;;;;5123692;28;20027;-36
2021/09/12 00:56:41;;;;;;;1.20;1.10;;;24.50;63.40;;;;;;5122809;28;20473;-36
2021/09/12 00:59:09;;;;;;;;;;;24.50;63.60;;;;;;5124667;28;20020;-36
2021/09/12 01:01:35;;;;;;;1.70;1.60;;;24.50;63.80;;;;;;5124156;28;19989;-36
2021/09/12 01:04:02;;;;;;;1.67;1.30;;;24.50;63.80;;;;;;5123824;28;20111;-36
2021/09/12 01:06:29;;;;;;;1.40;1.30;;;24.50;63.90;;;;;;5123864;28;20164;-36
2021/09/12 01:08:55;;;;;;;1.60;1.50;;;24.50;63.90;;;;;;5122365;28;20032;-36
2021/09/12 01:11:21;;;;;;;1.50;1.40;;;24.50;63.90;;;;;;5123955;28;20043;-36
2021/09/12 01:13:47;;;;;;;1.50;1.40;;;24.50;64.00;;;;;;5123009;28;20110;-36
2021/09/12 01:16:16;;;;;;;1.37;1.27;;;24.40;63.80;;;;;;5123672;28;20114;-36
2021/09/12 01:18:43;;;;;;;1.38;1.27;;;24.40;63.80;;;;;;5123404;28;20491;-36
2021/09/12 01:21:12;;;;;;;;;;;24.40;63.70;;;;;;5123927;28;20058;-36
2021/09/12 01:23:38;;;;;;;1.17;1.08;;;24.40;63.70;;;;;;5122145;28;20307;-36
2021/09/12 01:26:05;;;;;;;1.55;1.45;;;24.40;63.70;;;;;;5123714;28;20040;-36
2021/09/12 01:28:31;;;;;;;1.42;1.33;;;24.40;63.60;;;;;;5123559;28;20032;-36
2021/09/12 01:30:57;;;;;;;1.50;1.40;;;24.40;63.70;;;;;;5122779;28;20488;-36
2021/09/12 01:33:23;;;;;;;1.80;1.42;;;24.40;63.80;;;;;;5123164;28;20024;-36
2021/09/12 01:35:49;;;;;;;1.60;1.33;;;24.40;64.00;;;;;;5123376;28;20027;-36
2021/09/12 01:38:15;;;;;;;1.60;1.50;;;24.40;64.40;;;;;;5123538;28;20020;-36
2021/09/12 01:40:42;;;;;;;1.38;1.23;;;24.40;64.60;;;;;;5123452;28;20045;-36
2021/09/12 01:43:08;;;;;;;1.80;1.48;;;24.40;64.60;;;;;;5123028;28;20042;-36
2021/09/12 01:45:34;;;;;;;1.60;1.33;;;24.40;64.80;;;;;;5123182;28;20110;-36
2021/09/12 01:48:00;;;;;;;1.73;1.58;;;24.40;64.90;;;;;;5122775;28;20044;-37
2021/09/12 01:50:29;;;;;;;1.95;1.40;;;24.40;64.80;;;;;;5121938;28;20051;-36
2021/09/12 01:52:55;;;;;;;1.85;1.65;;;24.40;64.70;;;;;;5122814;28;20138;-37
2021/09/12 01:55:21;;;;;;;1.73;1.63;;;24.40;64.70;;;;;;5123110;28;20032;-36
2021/09/12 01:57:47;;;;;;;1.55;1.40;;;24.40;64.70;;;;;;5123194;28;20035;-36
2021/09/12 02:00:14;;;;;;;2.85;1.70;;;24.40;64.60;;;;;;5121671;28;20026;-36
2021/09/12 02:02:40;;;;;;;1.40;1.30;;;24.40;65.30;;;;;;5122836;28;20083;-36
2021/09/12 02:05:07;;;;;;;1.65;1.55;;;24.30;64.30;;;;;;5123218;28;20036;-37
2021/09/12 02:07:33;;;;;;;1.40;1.30;;;24.40;64.30;;;;;;5122932;28;20016;-36
2021/09/12 02:09:59;;;;;;;1.48;1.38;;;24.40;64.20;;;;;;5123041;28;20039;-36
2021/09/12 02:12:25;;;;;;;3.15;1.58;;;24.40;64.00;;;;;;5122887;28;20020;-36
2021/09/12 02:14:51;;;;;;;1.63;1.52;;;24.30;64.00;;;;;;5122657;28;20023;-36
2021/09/12 02:17:18;;;;;;;1.67;1.58;;;24.30;63.80;;;;;;5122788;28;20187;-36
2021/09/12 02:19:44;;;;;;;1.50;1.40;;;24.30;63.90;;;;;;5123004;28;20084;-36
2021/09/12 02:22:10;;;;;;;2.03;1.63;;;24.30;63.60;;;;;;5122829;28;20024;-36
2021/09/12 02:24:37;;;;;;;1.75;1.40;;;24.30;63.50;;;;;;5122917;28;20472;-36
2021/09/12 02:27:03;;;;;;;1.90;1.50;;;24.30;63.50;;;;;;5122749;28;20031;-36
2021/09/12 02:29:29;;;;;;;1.80;1.70;;;24.30;63.50;;;;;;5122688;28;20035;-36
2021/09/12 02:31:55;;;;;;;1.75;1.52;;;24.30;63.50;;;;;;5122858;28;20077;-36
2021/09/12 02:34:22;;;;;;;3.03;1.93;;;24.30;63.70;;;;;;5122787;28;20042;-36
2021/09/12 02:36:48;;;;;;;1.40;1.20;;;24.30;63.70;;;;;;5122885;28;20027;-36
2021/09/12 02:39:14;;;;;;;1.60;1.50;;;24.30;63.60;;;;;;5122785;28;20055;-36
2021/09/12 02:41:40;;;;;;;1.67;1.58;;;24.20;63.70;;;;;;5124207;28;20016;-36
2021/09/12 02:44:06;;;;;;;1.65;1.55;;;24.30;63.60;;;;;;5126501;28;20065;-36
2021/09/12 02:46:33;;;;;;;1.73;1.58;;;24.20;63.70;;;;;;5126527;28;20024;-36
2021/09/12 02:48:59;;;;;;;1.75;1.65;;;24.20;63.70;;;;;;5126292;28;20039;-36
2021/09/12 02:51:25;;;;;;;1.65;1.55;;;24.20;63.60;;;;;;5126420;28;20030;-36
2021/09/12 02:53:51;;;;;;;1.80;1.70;;;24.20;63.70;;;;;;5126378;28;20032;-37
2021/09/12 02:56:17;;;;;;;2.13;1.63;;;24.20;63.60;;;;;;5125305;28;20044;-36
2021/09/12 02:58:43;;;;;;;1.73;1.63;;;24.10;63.40;;;;;;5126248;28;20616;-36
2021/09/12 03:01:10;;;;;;;1.50;1.40;;;24.20;63.40;;;;;;5126323;28;20023;-37
2021/09/12 03:03:36;;;;;;;1.73;1.50;;;24.10;63.30;;;;;;5126290;27;20103;-36
2021/09/12 03:06:02;;;;;;;1.70;1.60;;;24.10;63.20;;;;;;5126353;28;20035;-36
2021/09/12 03:08:28;;;;;;;1.55;1.45;;;24.10;63.20;;;;;;5126420;28;20035;-36
2021/09/12 03:10:54;;;;;;;1.60;1.45;;;24.10;63.30;;;;;;5126276;27;20041;-36
2021/09/12 03:13:20;;;;;;;1.63;1.52;;;24.10;63.20;;;;;;5125983;28;20031;-36
2021/09/12 03:15:46;;;;;;;1.55;1.45;;;24.10;63.20;;;;;;5125593;28;20030;-36
2021/09/12 03:18:13;;;;;;;1.55;1.40;;;24.10;64.00;;;;;;5126130;28;20012;-37
2021/09/12 03:20:39;;;;;;;1.80;1.70;;;24.00;63.30;;;;;;5126318;28;20032;-36
2021/09/12 03:23:05;;;;;;;2.67;1.65;;;24.10;63.30;;;;;;5125758;28;20050;-36
2021/09/12 03:25:32;;;;;;;1.70;1.60;;;24.10;63.40;;;;;;5125879;27;20038;-36
2021/09/12 03:27:58;;;;;;;1.83;1.60;;;24.10;63.30;;;;;;5125767;28;20039;-36
2021/09/12 03:30:24;;;;;;;1.77;1.67;;;24.00;63.30;;;;;;5125751;28;20119;-36
2021/09/12 03:32:50;;;;;;;1.70;1.60;;;24.00;63.30;;;;;;5125686;28;20032;-36
2021/09/12 03:35:16;;;;;;;1.65;1.55;;;24.00;63.40;;;;;;5125770;28;20031;-36
2021/09/12 03:37:42;;;;;;;4.18;1.85;;;24.00;63.40;;;;;;5125925;28;20115;-36
2021/09/12 03:40:09;;;;;;;2.15;1.92;;;24.00;63.40;;;;;;5125702;28;20024;-36
2021/09/12 03:42:35;;;;;;;2.00;1.85;;;24.00;63.40;;;;;;5125443;28;20041;-36
2021/09/12 03:45:01;;;;;;;2.22;1.80;;;23.90;63.40;;;;;;5125080;28;20027;-36
2021/09/12 03:47:27;;;;;;;2.10;1.90;;;24.00;63.50;;;;;;5125408;28;20567;-36
2021/09/12 03:49:54;;;;;;;1.90;1.80;;;24.00;63.50;;;;;;5125338;28;20035;-36
2021/09/12 03:52:20;;;;;;;1.80;1.70;;;23.90;63.50;;;;;;5125054;28;20027;-36
2021/09/12 03:54:46;;;;;;;2.05;1.73;;;23.90;63.50;;;;;;5124800;28;20069;-36
2021/09/12 03:57:12;;;;;;;2.22;1.77;;;23.90;63.60;;;;;;5125673;27;20028;-36
2021/09/12 03:59:38;;;;;;;2.13;1.75;;;23.90;63.60;;;;;;5125108;28;20095;-36
2021/09/12 04:02:04;;;;;;;1.98;1.70;;;23.90;63.70;;;;;;5124933;28;20087;-36
2021/09/12 04:04:31;;;;;;;2.00;1.90;;;23.90;63.70;;;;;;5124954;28;20051;-36
2021/09/12 04:06:57;;;;;;;2.22;2.03;;;23.90;63.60;;;;;;5125327;28;20028;-36
2021/09/12 04:09:23;;;;;;;2.50;2.30;;;23.80;63.70;;;;;;5125173;28;20027;-36
2021/09/12 04:11:49;;;;;;;2.50;1.83;;;23.80;63.70;;;;;;5125114;28;20243;-36
2021/09/12 04:14:15;;;;;;;3.50;2.08;;;23.80;63.80;;;;;;5124523;28;20024;-36
2021/09/12 04:16:43;;;;;;;2.25;2.00;;;23.80;63.80;;;;;;5124883;28;20037;-36
2021/09/12 04:19:09;;;;;;;2.50;1.60;;;23.80;63.80;;;;;;5124711;28;20499;-37
2021/09/12 04:21:35;;;;;;;2.33;1.77;;;23.80;63.80;;;;;;5125159;27;20083;-36
2021/09/12 04:24:02;;;;;;;1.95;1.83;;;23.80;63.90;;;;;;5124423;28;20034;-36
2021/09/12 04:26:28;;;;;;;2.60;2.17;;;23.70;63.80;;;;;;5124685;28;20016;-36
2021/09/12 04:28:54;;;;;;;2.13;1.95;;;23.70;63.80;;;;;;5124461;28;20046;-36
2021/09/12 04:31:20;;;;;;;2.95;2.17;;;23.70;63.90;;;;;;5124540;28;20030;-36
2021/09/12 04:33:46;;;;;;;2.35;2.15;;;23.70;63.90;;;;;;5124647;28;20027;-36
2021/09/12 04:36:12;;;;;;;2.13;1.95;;;23.70;64.00;;;;;;5124741;28;20035;-36
2021/09/12 04:38:38;;;;;;;2.10;1.90;;;23.70;64.00;;;;;;5124615;28;20030;-36
2021/09/12 04:41:07;;;;;;;2.20;2.00;;;23.70;64.00;;;;;;5124359;28;20057;-36
2021/09/12 04:43:33;;;;;;;2.15;1.95;;;23.70;64.00;;;;;;5123721;28;20027;-36
2021/09/12 04:46:00;;;;;;;2.22;1.92;;;23.70;64.10;;;;;;5124584;28;20027;-36
2021/09/12 04:48:26;;;;;;;2.65;2.10;;;23.70;64.10;;;;;;5124350;28;20062;-36
2021/09/12 04:50:52;;;;;;;2.28;2.08;;;23.60;64.00;;;;;;5124364;28;20027;-36
2021/09/12 04:53:18;;;;;;;2.97;2.30;;;23.60;64.00;;;;;;5123970;28;20119;-36
2021/09/12 04:55:44;;;;;;;2.80;2.38;;;23.60;64.10;;;;;;5124262;28;20027;-36
2021/09/12 04:58:10;;;;;;;2.05;1.88;;;23.60;64.20;;;;;;5124054;28;20027;-37
2021/09/12 05:00:37;;;;;;;2.58;2.38;;;23.60;64.20;;;;;;5124226;28;20106;-36
2021/09/12 05:03:03;;;;;;;2.58;2.20;;;23.60;64.20;;;;;;5123862;28;20107;-36
2021/09/12 05:05:29;;;;;;;2.30;2.10;;;23.60;64.20;;;;;;5123050;28;20036;-36
2021/09/12 05:07:55;;;;;;;2.15;1.95;;;23.60;64.30;;;;;;5124109;28;20031;-36
2021/09/12 05:10:22;;;;;;;2.22;2.03;;;23.60;64.30;;;;;;5123784;28;20032;-37
2021/09/12 05:12:48;;;;;;;2.38;2.10;;;23.50;64.20;;;;;;5123488;28;20095;-36
2021/09/12 05:15:14;;;;;;;2.35;2.00;;;23.50;64.30;;;;;;5123627;28;20046;-36
2021/09/12 05:17:41;;;;;;;2.25;1.85;;;23.50;64.30;;;;;;5123834;28;20054;-36
2021/09/12 05:20:07;;;;;;;3.13;2.23;;;23.50;64.30;;;;;;5123951;28;20031;-36
2021/09/12 05:22:34;;;;;;;2.33;2.13;;;23.50;64.40;;;;;;5123609;28;20144;-37
2021/09/12 05:25:01;;;;;;;2.58;2.38;;;23.50;64.40;;;;;;5123517;28;20061;-36
2021/09/12 05:27:27;;;;;;;2.40;2.20;;;23.50;64.50;;;;;;5123536;28;20388;-36
2021/09/12 05:29:53;;;;;;;2.58;2.35;;;23.50;64.50;;;;;;5123425;28;20441;-36
2021/09/12 05:32:19;;;;;;;2.45;2.25;;;23.40;64.40;;;;;;5123635;28;20036;-36
2021/09/12 05:34:46;;;;;;;2.55;2.20;;;23.40;64.40;;;;;;5123406;28;20046;-36
2021/09/12 05:37:12;;;;;;;2.35;2.15;;;23.40;64.50;;;;;;5123410;28;20064;-36
2021/09/12 05:39:39;;;;;;;3.57;2.20;;;23.40;64.50;;;;;;5123541;28;20034;-36
2021/09/12 05:42:05;;;;;;;2.25;1.90;;;23.40;64.60;;;;;;5123315;28;20035;-36
2021/09/12 05:44:32;;;;;;;2.80;2.60;;;23.40;64.60;;;;;;5123134;28;20853;-36
2021/09/12 05:46:58;;;;;;;2.40;2.20;;;23.40;64.60;;;;;;5123167;28;20091;-37
2021/09/12 05:49:24;;;;;;;3.57;2.50;;;23.30;64.60;;;;;;5123404;28;20035;-36
2021/09/12 05:51:50;;;;;;;2.50;2.30;;;23.30;64.60;;;;;;5123221;28;20023;-36
2021/09/12 05:54:17;;;;;;;2.47;2.28;;;23.30;64.60;;;;;;5122938;28;20048;-36
2021/09/12 05:56:43;;;;;;;2.37;2.00;;;23.30;64.70;;;;;;5123210;28;20031;-36
2021/09/12 05:59:09;;;;;;;2.60;2.40;;;23.30;64.70;;;;;;5122744;28;20038;-36
2021/09/12 06:01:35;;;;;;;2.60;2.40;;;23.30;64.70;;;;;;5110766;28;20035;-36
2021/09/12 06:04:01;;;;;;;2.53;2.33;;;23.30;64.70;;;;;;5101222;28;20050;-36
2021/09/12 06:06:27;;;;;;;2.55;2.35;;;23.30;64.80;;;;;;5102843;28;20044;-36
2021/09/12 06:08:54;;;;;;;2.95;2.70;;;23.20;64.80;;;;;;5102458;28;20044;-36
2021/09/12 06:11:20;;;;;;;2.95;2.50;;;23.20;64.80;;;;;;5102727;28;20020;-35
2021/09/12 06:13:46;;;;;;;2.95;2.53;;;23.20;64.80;;;;;;5104642;28;20039;-36
2021/09/12 06:16:12;;;;;;;2.53;2.33;;;23.20;64.90;;;;;;5123460;28;20024;-36
2021/09/12 06:18:38;;;;;;;2.40;2.20;;;23.20;64.90;;;;;;5127484;28;20043;-36
2021/09/12 06:21:06;;;;;;;2.95;2.58;;;23.20;64.90;;;;;;5127331;28;20023;-36
2021/09/12 06:23:32;;;;;;;4.93;2.67;;;23.20;64.90;;;;;;5127111;28;20065;-36
2021/09/12 06:25:58;;;;;;;5.38;2.38;;;23.20;65.00;;;;;;5126882;28;20020;-36
2021/09/12 06:28:24;;;;;;;2.35;2.15;;;23.20;65.00;;;;;;5127008;28;20510;-36
2021/09/12 06:30:51;;;;;;;2.70;2.30;;;23.10;65.00;;;;;;5127139;28;20054;-36
2021/09/12 06:33:17;;;;;;;3.13;2.58;;;23.10;65.10;;;;;;5127043;28;20555;-36
2021/09/12 06:35:43;;;;;;;3.15;2.17;;;23.10;65.00;;;;;;5125280;28;20115;-36
2021/09/12 06:38:09;;;;;;;3.00;2.42;;;23.10;65.10;;;;;;5126956;28;20559;-36
2021/09/12 06:40:35;;;;;;;2.50;2.30;;;23.10;65.10;;;;;;5126816;28;20028;-36
2021/09/12 06:43:02;;;;;;;2.78;2.28;;;23.10;65.20;;;;;;5126460;28;20035;-36
2021/09/12 06:45:29;;;;;;;2.40;2.20;;;23.10;65.20;;;;;;5126508;28;20023;-36
2021/09/12 06:47:56;;;;;;;2.95;2.65;;;23.10;65.30;;;;;;5126549;28;20400;-36
2021/09/12 06:50:22;;;;;;;2.50;2.30;;;23.10;65.30;;;;;;5126849;28;20038;-36
2021/09/12 06:52:48;;;;;;;2.27;2.07;;;23.00;65.30;;;;;;5126707;28;20045;-36
2021/09/12 06:55:15;;;;;;;2.30;2.10;;;23.00;65.30;;;;;;5124867;28;20118;-36
2021/09/12 06:57:41;;;;;;;2.20;2.00;;;23.00;65.30;;;;;;5126695;28;20032;-36
2021/09/12 07:00:08;;;;;;;2.95;2.50;;;23.00;65.40;;;;;;5126440;28;20272;-36
2021/09/12 07:02:38;;;;;;;3.13;2.35;;;23.00;65.40;;;;;;5125235;28;20023;-36
2021/09/12 07:05:05;;;;;;;2.50;2.30;;;23.00;65.40;;;;;;5126223;28;20062;-36
2021/09/12 07:07:31;;;;;;;;;;;23.00;65.50;;;;;;5126561;28;20893;-36
2021/09/12 07:09:57;;;;;;;3.60;2.53;;;23.00;65.50;;;;;;5126245;28;19950;-36
2021/09/12 07:12:24;;;;;;;2.55;2.35;;;23.00;65.60;;;;;;5126217;28;20031;-36
2021/09/12 07:14:50;;;;;;;2.90;2.58;;;22.90;65.50;;;;;;5125928;28;20066;-36
2021/09/12 07:17:16;;;;;;;2.72;2.53;;;22.90;65.60;;;;;;5125836;27;20028;-37
2021/09/12 07:19:42;;;;;;;3.13;2.83;;;22.90;65.60;;;;;;5126093;27;20032;-36
2021/09/12 07:22:08;;;;;;;2.42;2.22;;;22.90;65.60;;;;;;5126044;28;20020;-36
2021/09/12 07:24:35;;;;;;;3.10;2.80;;;22.90;65.70;;;;;;5126018;28;20421;-36
2021/09/12 07:27:01;;;;;;;2.38;2.17;;;22.90;65.70;;;;;;5125545;28;20083;-37
2021/09/12 07:29:27;;;;;;;3.13;2.83;;;22.90;65.70;;;;;;5124889;28;20035;-36
2021/09/12 07:31:55;;;;;;;2.80;2.53;;;22.80;65.70;;;;;;5125844;28;20024;-36
2021/09/12 07:34:22;;;;;;;3.70;2.38;;;22.80;65.70;;;;;;5124377;28;20036;-36
2021/09/12 07:36:48;;;;;;;2.65;2.45;;;22.80;65.80;;;;;;5125360;28;20038;-36
2021/09/12 07:39:14;;;;;;;3.78;2.50;;;22.80;65.80;;;;;;5125577;28;20553;-37
2021/09/12 07:41:40;;;;;;;2.53;2.33;;;22.80;65.80;;;;;;5125710;28;20027;-36
2021/09/12 07:44:06;;;;;;;2.88;2.67;;;22.80;65.90;;;;;;5120539;28;20513;-36
2021/09/12 07:46:32;;;;;;;3.75;2.17;;;22.80;65.90;;;;;;5104680;28;20020;-36
2021/09/12 07:48:59;;;;;;;2.95;2.55;;;22.80;65.90;;;;;;5118833;28;20036;-36
2021/09/12 07:51:25;;;;;;;2.30;2.10;;;22.80;66.70;;;;;;5125624;28;20026;-36
2021/09/12 07:53:51;;;;;;;2.63;2.42;;;22.80;66.00;;;;;;5125233;28;20028;-36
2021/09/12 07:56:17;;;;;;;5.07;2.40;;;22.70;65.90;;;;;;5124942;28;20024;-36
2021/09/12 07:58:43;;;;;;;3.20;2.90;;;22.70;66.00;;;;;;5125240;27;20062;-36
2021/09/12 08:01:10;;;;;;;2.90;2.50;;;22.80;66.10;;;;;;5125373;28;20035;-36
2021/09/12 08:03:36;;;;;;;2.75;2.50;;;22.70;66.10;;;;;;5125324;28;20026;-36
2021/09/12 08:06:02;;;;;;;3.40;2.53;;;22.70;66.20;;;;;;5124928;28;20033;-36
2021/09/12 08:08:28;;;;;;;3.15;2.70;;;22.70;66.20;;;;;;5125033;28;20027;-36
2021/09/12 08:10:54;;;;;;;3.25;2.90;;;22.70;66.20;;;;;;5125161;28;20076;-36
2021/09/12 08:13:21;;;;;;;3.28;2.97;;;22.70;66.20;;;;;;5125050;28;20034;-36
2021/09/12 08:15:47;;;;;;;2.60;2.40;;;22.60;66.30;;;;;;5124844;28;20043;-36
2021/09/12 08:18:13;;;;;;;3.47;2.38;;;22.60;66.20;;;;;;5124843;28;20019;-36
2021/09/12 08:20:39;;;;;;;3.00;2.55;;;22.60;66.20;;;;;;5125025;28;20047;-36
2021/09/12 08:23:05;;;;;;;2.65;2.45;;;22.60;66.20;;;;;;5124799;28;20024;-36
2021/09/12 08:25:31;;;;;;;3.27;2.90;;;22.60;66.30;;;;;;5124748;28;20156;-36
2021/09/12 08:27:58;;;;;;;2.67;2.30;;;22.60;66.40;;;;;;5124561;28;20032;-36
2021/09/12 08:30:24;;;;;;;2.72;2.50;;;22.60;66.40;;;;;;5124961;28;20031;-36
2021/09/12 08:32:50;;;;;;;3.00;2.80;;;22.60;66.40;;;;;;5124458;28;20032;-36
2021/09/12 08:35:16;;;;;;;3.17;2.88;;;22.60;66.50;;;;;;5124546;28;20032;-36
2021/09/12 08:37:42;;;;;;;2.78;2.58;;;22.60;66.50;;;;;;5124311;28;20020;-36
2021/09/12 08:40:09;;;;;;;2.40;2.13;;;22.50;66.40;;;;;;5124430;28;20023;-36
2021/09/12 08:42:35;;;;;;;3.05;2.65;;;22.50;66.50;;;;;;5124605;28;20833;-36
2021/09/12 08:45:03;;;;;;;2.83;2.63;;;22.50;66.50;;;;;;5122988;28;20039;-36
2021/09/12 08:47:29;;;;;;;4.22;2.60;;;22.50;66.50;;;;;;5123761;28;20135;-37
2021/09/12 08:49:55;;;;;;;3.33;2.65;;;22.50;66.50;;;;;;5124263;28;20087;-36
2021/09/12 08:52:21;;;;;;;3.78;3.20;;;22.50;66.60;;;;;;5124312;28;20384;-36
2021/09/12 08:54:48;;;;;;;3.10;2.80;;;22.50;66.60;;;;;;5124332;28;20076;-36
2021/09/12 08:57:16;;;;;;;2.92;2.72;;;22.50;66.70;;;;;;5123981;28;20028;-36
2021/09/12 08:59:49;;;;;;;2.65;2.45;;;22.50;66.70;;;;;;5124089;28;20028;-36
2021/09/12 09:02:15;;;;;;;3.10;2.78;;;22.50;66.70;;;;;;5122805;28;20028;-36
2021/09/12 09:04:41;;;;;;;3.35;2.90;;;22.40;66.60;;;;;;5123648;28;20019;-36
2021/09/12 09:07:09;;;;;;;2.78;2.58;;;22.40;66.70;;;;;;5123927;28;20027;-36
2021/09/12 09:09:46;;;;;;;3.30;3.00;;;22.40;66.70;;;;;;5122676;28;20054;-38
2021/09/12 09:12:34;;;;;;;3.20;2.90;;;22.40;66.80;;;;;;5123972;28;20031;-36
2021/09/12 09:15:14;;;;;;;2.95;2.70;;;22.40;66.80;;;;;;5123734;28;20031;-36
2021/09/12 09:17:50;;;;;;;3.45;2.92;;;22.40;66.90;;;;;;5123510;28;20077;-36
2021/09/12 09:20:34;;;;;;;4.22;2.80;;;22.40;66.90;;;;;;5123637;28;20027;-36
2021/09/12 09:23:07;;;;;;;3.33;2.80;;;22.40;66.90;;;;;;5109038;28;20024;-36
2021/09/12 09:25:33;;;;;;;2.85;2.55;;;22.40;67.00;;;;;;5123752;28;20028;-36
2021/09/12 09:28:09;;;;;;;3.92;2.83;;;22.40;67.00;;;;;;5123353;28;20028;-36
2021/09/12 09:30:54;;;;;;;3.00;2.70;;;22.30;66.90;;;;;;5123569;28;20067;-36
2021/09/12 09:33:27;;;;;;;3.33;3.03;;;22.30;67.20;;;;;;5123286;28;20438;-36
2021/09/12 09:36:07;;;;;;;3.20;2.80;;;22.30;67.00;;;;;;5123510;28;20027;-36
2021/09/12 09:38:38;;;;;;;3.08;2.42;;;22.30;67.00;;;;;;5123231;28;20036;-36
2021/09/12 09:41:20;;;;;;;2.97;2.60;;;22.30;67.10;;;;;;5123423;28;20038;-36
2021/09/12 09:43:51;;;;;;;3.17;2.88;;;22.30;67.10;;;;;;5123296;28;20043;-36
2021/09/12 09:46:43;;;;;;;3.40;3.10;;;22.30;67.10;;;;;;5123374;28;20034;-36
2021/09/12 09:49:26;;;;;;;3.13;2.80;;;22.30;67.10;;;;;;5122815;28;20581;-36
2021/09/12 09:52:00;;;;;;;2.88;2.67;;;22.30;67.20;;;;;;5121164;28;20039;-36
2021/09/12 09:54:29;;;;;;;3.50;2.70;;;22.20;67.10;;;;;;5121871;28;20039;-36
2021/09/12 09:56:55;;;;;;;3.33;3.03;;;22.20;67.10;;;;;;5123142;28;20027;-36
2021/09/12 09:59:25;;;;;;;3.37;2.77;;;22.20;67.20;;;;;;5122502;28;20031;-36
2021/09/12 10:01:52;;;;;;;3.10;2.80;;;22.20;67.20;;;;;;5122860;28;20036;-36
2021/09/12 10:04:20;;;;;;;4.35;2.72;;;22.20;67.30;;;;;;5122752;28;20030;-36
2021/09/12 10:06:47;;;;;;;3.72;3.33;;;22.20;67.30;;;;;;5123027;28;20091;-36
2021/09/12 10:09:14;;;;;;;3.90;3.17;;;22.20;67.30;;;;;;5122731;28;20042;-36
2021/09/12 10:11:41;;;;;;;5.18;3.35;;;22.20;67.30;;;;;;5123043;28;20043;-36
2021/09/12 10:14:07;;;;;;;3.33;3.03;;;22.20;67.40;;;;;;5121399;28;20058;-37
2021/09/12 10:16:34;;;;;;;4.45;3.20;;;22.20;67.40;;;;;;5104789;28;20035;-36
2021/09/12 10:19:00;;;;;;;4.63;2.75;;;22.20;67.40;;;;;;5122538;28;20032;-36
2021/09/12 10:21:30;;;;;;;2.92;2.72;;;22.10;67.40;;;;;;5101158;28;20024;-36
2021/09/12 10:24:04;;;;;;;2.88;2.60;;;22.20;67.50;;;;;;5116149;28;20038;-36
2021/09/12 10:26:40;;;;;;;2.90;2.45;;;22.10;67.40;;;;;;5122165;28;20059;-36
2021/09/12 10:29:54;;;;;;;3.00;2.70;;;22.10;67.40;;;;;;5122653;28;20068;-36
2021/09/12 10:32:35;;;;;;;3.10;2.80;;;22.10;67.50;;;;;;5079175;28;20032;-36
2021/09/12 10:35:24;;;;;;;3.47;3.17;;;22.10;67.50;;;;;;5079439;28;20066;-36
2021/09/12 10:38:00;;;;;;;4.18;3.05;;;22.10;67.60;;;;;;5079321;28;20036;-36
2021/09/12 10:40:49;;;;;;;3.90;3.00;;;22.10;67.60;;;;;;5079406;28;20064;-36
2021/09/12 10:43:25;;;;;;;2.80;2.58;;;22.10;67.60;;;;;;5079139;28;20051;-36
2021/09/12 10:46:07;;;;;;;3.58;2.88;;;22.10;67.70;;;;;;5079165;28;20028;-36
2021/09/12 10:49:02;;;;;;;3.78;3.17;;;22.00;67.60;;;;;;5078864;28;20048;-36
2021/09/12 10:51:29;;;;;;;3.20;2.70;;;22.10;67.70;;;;;;5071550;28;20032;-36
2021/09/12 10:53:58;;;;;;;2.88;2.67;;;22.00;67.60;;;;;;5092566;28;20725;-36
2021/09/12 10:56:24;;;;;;;2.97;2.67;;;22.00;67.70;;;;;;5075339;28;20033;-36
2021/09/12 10:58:55;;;;;;;3.25;2.95;;;22.00;67.70;;;;;;5058873;28;20055;-36
2021/09/12 11:01:31;;;;;;;2.83;2.47;;;22.00;67.80;;;;;;5042970;28;20047;-36
2021/09/12 11:04:00;;;;;;;3.28;2.97;;;22.00;67.80;;;;;;5062586;28;20067;-36
2021/09/12 11:06:30;;;;;;;3.20;2.90;;;22.00;67.80;;;;;;5062749;28;20036;-36
2021/09/12 11:08:56;;;;;;;3.10;2.80;;;22.00;67.80;;;;;;5103099;28;20043;-36
2021/09/12 11:11:23;;;;;;;3.08;2.80;;;21.90;67.80;;;;;;5104478;28;20040;-36
2021/09/12 11:13:50;;;;;;;3.20;2.88;;;21.90;67.90;;;;;;5105668;28;20024;-36
2021/09/12 11:16:18;;;;;;;2.90;2.60;;;21.90;67.90;;;;;;5105777;28;20060;-37
2021/09/12 11:19:01;;;;;;;3.47;3.17;;;21.90;67.90;;;;;;5112793;28;20069;-36
2021/09/12 11:21:34;;;;;;;3.10;2.70;;;21.90;68.00;;;;;;5126042;28;20031;-36
2021/09/12 11:24:17;;;;;;;3.78;3.05;;;21.90;67.90;;;;;;5126084;28;20035;-37
2021/09/12 11:26:48;;;;;;;3.20;2.90;;;21.90;68.00;;;;;;5125914;28;20022;-36
2021/09/12 11:29:21;;;;;;;3.33;3.00;;;21.90;68.00;;;;;;5125422;28;20784;-36
2021/09/12 11:31:54;;;;;;;3.20;2.90;;;21.90;68.00;;;;;;5126037;28;20074;-36
2021/09/12 11:34:22;;;;;;;3.15;2.85;;;21.90;68.00;;;;;;5125877;28;20417;-36
2021/09/12 11:36:51;;;;;;;3.10;2.70;;;21.80;68.00;;;;;;5125826;28;20062;-36
2021/09/12 11:39:33;;;;;;;3.40;3.10;;;21.80;68.00;;;;;;5125572;28;20027;-36
2021/09/12 11:42:01;;;;;;;3.15;2.88;;;21.80;68.00;;;;;;5124379;28;20032;-36
2021/09/12 11:44:41;;;;;;;3.42;3.10;;;21.80;68.10;;;;;;5125627;28;20073;-36
2021/09/12 11:47:09;;;;;;;3.28;2.97;;;21.80;68.10;;;;;;5124127;28;20055;-36
2021/09/12 11:49:35;;;;;;;4.28;3.03;;;21.80;68.10;;;;;;5125286;28;20039;-36
2021/09/12 11:52:01;;;;;;;3.67;2.93;;;21.80;68.10;;;;;;5125489;28;20057;-36
2021/09/12 11:54:29;;;;;;;2.72;2.53;;;21.80;68.10;;;;;;5125239;28;20027;-36
2021/09/12 11:57:01;;;;;;;3.30;2.95;;;21.80;68.20;;;;;;5125129;28;20065;-36
2021/09/12 11:59:29;;;;;;;4.30;3.38;;;21.80;68.20;;;;;;5124935;28;20064;-36
2021/09/12 12:01:55;;;;;;;3.65;2.85;;;21.70;68.20;;;;;;5121666;28;20522;-36
2021/09/12 12:04:21;;;;;;;3.37;2.70;;;21.80;68.30;;;;;;5125238;28;20031;-36
2021/09/12 12:06:48;;;;;;;3.25;2.90;;;21.70;68.20;;;;;;5124087;28;20223;-36
2021/09/12 12:09:17;;;;;;;3.13;2.83;;;21.80;68.30;;;;;;5125023;28;20035;-36
2021/09/12 12:11:45;;;;;;;3.22;2.92;;;21.70;68.20;;;;;;5124923;28;20028;-36
2021/09/12 12:14:25;;;;;;;3.38;2.83;;;21.80;68.30;;;;;;5124629;28;20028;-36
2021/09/12 12:16:52;;;;;;;3.53;3.22;;;21.80;68.40;;;;;;5125230;28;20043;-36
2021/09/12 12:19:18;;;;;;;;;;;21.70;68.30;;;;;;5125376;28;20062;-36
2021/09/12 12:21:46;;;;;;;3.70;3.40;;;21.70;68.30;;;;;;5124863;28;19978;-37
2021/09/12 12:24:18;;;;;;;2.97;2.78;;;21.70;68.30;;;;;;5125154;28;20028;-36
2021/09/12 12:26:52;;;;;;;3.08;2.78;;;21.70;68.30;;;;;;5124544;28;20027;-36
2021/09/12 12:29:25;;;;;;;3.40;3.10;;;21.70;68.40;;;;;;5124499;28;20035;-36
2021/09/12 12:31:54;;;;;;;3.03;2.75;;;21.70;68.40;;;;;;5124724;27;20023;-36
2021/09/12 12:34:50;;;;;;;3.30;3.00;;;21.70;68.40;;;;;;5124658;28;20046;-36
2021/09/12 12:37:18;;;;;;;3.22;2.92;;;21.70;68.40;;;;;;5124462;28;20110;-36
2021/09/12 12:39:44;;;;;;;;;;;21.70;68.40;;;;;;5123496;28;20023;-36
2021/09/12 12:42:11;;;;;;;3.08;2.78;;;21.70;68.40;;;;;;5124391;28;19929;-36
2021/09/12 12:44:44;;;;;;;4.22;2.90;;;21.70;68.40;;;;;;5124561;28;20019;-36
2021/09/12 12:47:12;;;;;;;3.63;2.97;;;21.60;68.40;;;;;;5124349;28;20144;-36
2021/09/12 12:49:39;;;;;;;3.30;3.00;;;21.70;68.50;;;;;;5124083;28;20042;-36
2021/09/12 12:52:06;;;;;;;3.47;3.17;;;21.60;68.40;;;;;;5124304;28;20084;-37